createdAt,value
2022-10-25T00:01:25.282Z,1015.14
2022-10-25T00:20:40.282Z,1015.18
2022-10-25T00:30:17.668Z,1015.19
2022-10-25T00:39:54.851Z,1015.04
2022-10-25T00:49:31.763Z,1015.04
2022-10-25T00:59:09.126Z,1015.08
2022-10-25T01:08:45.638Z,1015.15
2022-10-25T01:18:22.493Z,1015.23
2022-10-25T01:27:59.942Z,1015.29
2022-10-25T01:37:37.415Z,1015.24
2022-10-25T01:47:14.378Z,1015.31
2022-10-25T01:56:51.217Z,1015.39
2022-10-25T02:06:29.564Z,1015.31
2022-10-25T02:16:05.765Z,1015.5
2022-10-25T02:25:42.773Z,1015.51
2022-10-25T02:35:20.312Z,1015.54
2022-10-25T02:44:57.665Z,1015.48
2022-10-25T02:54:34.684Z,1015.63
2022-10-25T03:04:12.118Z,1015.74
2022-10-25T03:13:49.018Z,1015.72
2022-10-25T03:23:26.170Z,1015.81
2022-10-25T03:33:03.027Z,1015.89
2022-10-25T03:42:39.908Z,1016.06
2022-10-25T03:52:16.369Z,1016.09
2022-10-25T04:01:53.541Z,1016.22
2022-10-25T04:11:30.617Z,1016.3
2022-10-25T04:21:09.133Z,1016.41
2022-10-25T04:30:45.784Z,1016.46
2022-10-25T04:40:22.617Z,1016.42
2022-10-25T04:49:59.377Z,1016.45
2022-10-25T04:59:36.915Z,1016.37
2022-10-25T05:09:13.993Z,1016.38
2022-10-25T05:18:51.373Z,1016.48
2022-10-25T05:28:29.126Z,1016.52
2022-10-25T05:47:43.027Z,1016.78
2022-10-25T05:57:20.431Z,1016.91
2022-10-25T06:06:57.291Z,1017.01
2022-10-25T06:26:11.771Z,1017.15
2022-10-25T06:35:48.582Z,1017.32
2022-10-25T06:45:26.334Z,1017.4
2022-10-25T06:55:03.874Z,1017.52
2022-10-25T07:04:42.365Z,1017.57
2022-10-25T07:14:19.934Z,1017.63
2022-10-25T07:23:58.229Z,1017.74
2022-10-25T07:33:36.711Z,1017.69
2022-10-25T07:43:15.771Z,1017.75
2022-10-25T07:52:53.769Z,1017.85
2022-10-25T08:02:32.692Z,1017.82
2022-10-25T08:12:11.642Z,1017.8
2022-10-25T08:21:49.765Z,1017.8
2022-10-25T08:31:27.172Z,1017.93
2022-10-25T08:41:18.540Z,1017.92
2022-10-25T08:51:02.696Z,1017.94
2022-10-25T09:00:40.517Z,1018.08
2022-10-25T09:10:18.618Z,1018.2
2022-10-25T09:19:56.823Z,1018.25
2022-10-25T09:39:15.653Z,1018.31
2022-10-25T09:58:27.101Z,1018.39
2022-10-25T10:08:04.127Z,1018.46
2022-10-25T10:27:20.177Z,1018.38
2022-10-25T10:37:00.601Z,1018.27
2022-10-25T10:46:51.758Z,1018.08
2022-10-25T10:56:39.487Z,1017.86
2022-10-25T11:06:20.495Z,1017.97
2022-10-25T11:15:47.067Z,1018.15
2022-10-25T11:25:18.767Z,1018.28
2022-10-25T11:34:59.426Z,1018.33
2022-10-25T11:44:33.736Z,1018.38
2022-10-25T11:54:13.613Z,1018.31
2022-10-25T12:03:52.281Z,1018.33
2022-10-25T12:13:32.290Z,1018.37
2022-10-25T12:23:06.012Z,1018.36
2022-10-25T12:32:42.798Z,1018.33
2022-10-25T12:42:19.750Z,1018.49
2022-10-25T12:51:56.965Z,1018.48
2022-10-25T13:01:33.626Z,1018.57
2022-10-25T13:30:22.239Z,1018.54
2022-10-25T13:40:01.660Z,1018.56
2022-10-25T13:49:38.978Z,1018.49
2022-10-25T13:59:17.836Z,1018.48
2022-10-25T14:08:56.574Z,1018.48
2022-10-25T14:18:33.498Z,1018.54
2022-10-25T14:28:12.062Z,1018.54
2022-10-25T14:37:45.587Z,1018.6
2022-10-25T14:47:21.617Z,1018.55
2022-10-25T15:06:45.514Z,1018.39
2022-10-25T15:16:19.924Z,1018.48
2022-10-25T15:25:54.817Z,1018.53
2022-10-25T15:35:30.457Z,1018.62
2022-10-25T15:45:06.399Z,1018.69
2022-10-25T15:54:42.361Z,1018.77
2022-10-25T16:04:18.028Z,1018.89
2022-10-25T16:13:56.185Z,1019
2022-10-25T16:23:30.657Z,1019.08
2022-10-25T16:33:07.348Z,1019.08
2022-10-25T16:42:43.338Z,1019.22
2022-10-25T16:52:19.099Z,1019.26
2022-10-25T17:01:54.815Z,1019.37
2022-10-25T17:11:30.965Z,1019.36
2022-10-25T17:21:07.244Z,1019.38
2022-10-25T17:30:43.723Z,1019.43
2022-10-25T17:40:20.661Z,1019.45
2022-10-25T17:49:57.458Z,1019.56
2022-10-25T17:59:34.245Z,1019.49
2022-10-25T18:18:47.974Z,1019.73
2022-10-25T18:47:37.526Z,1019.89
2022-10-25T19:16:26.956Z,1019.78
2022-10-25T19:26:03.916Z,1019.88
2022-10-25T19:35:40.472Z,1019.82
2022-10-25T19:45:17.174Z,1019.87
2022-10-25T19:54:53.834Z,1019.9
2022-10-25T20:04:30.355Z,1019.88
2022-10-25T20:14:07.406Z,1019.89
2022-10-25T20:23:45.108Z,1019.9
2022-10-25T20:33:21.944Z,1020.06
2022-10-25T20:42:58.580Z,1020.01
2022-10-25T20:52:39.699Z,1020.19
2022-10-25T21:02:11.882Z,1020.13
2022-10-25T21:11:48.794Z,1020.2
2022-10-25T21:21:25.555Z,1020.26
2022-10-25T21:31:02.240Z,1020.27
2022-10-25T21:40:38.700Z,1020.27
2022-10-25T21:59:52.145Z,1020.12
2022-10-25T22:09:28.746Z,1020.17
2022-10-25T22:19:05.897Z,1020.13
2022-10-25T22:28:42.865Z,1020.21
2022-10-25T22:38:19.290Z,1020.22
2022-10-25T22:47:56.681Z,1020.2
2022-10-25T22:57:33.713Z,1020.24
2022-10-25T23:07:10.626Z,1020.28
2022-10-25T23:26:23.977Z,1020.27
2022-10-25T23:36:00.468Z,1020.26
2022-10-25T23:45:36.937Z,1020.17
2022-10-25T23:55:13.312Z,1020.3
